Time;durP1;ratioP1;P1;durP2;ratioP2;P2;SDS_P1;SDS_P2;PMS_P1;PMS_P2;Temp;Humidity;BMP_temperature;BMP_pressure;BME280_temperature;BME280_humidity;BME280_pressure;Samples;Min_cycle;Max_cycle;Signal;HPM_P1;HPM_P2
2022/08/31 00:04:15;;;;;;;4.57;3.30;;;25.90;48.10;;;26.30;33.88;98684.81;5027394;28;125123;-84
2022/08/31 00:06:41;;;;;;;4.13;3.23;;;25.80;48.10;;;26.31;34.14;98690.06;5012056;28;114398;-83
2022/08/31 00:09:26;;;;;;;4.70;3.77;;;25.90;48.30;;;26.30;33.75;98684.81;5008860;28;113853;-83
2022/08/31 00:11:53;;;;;;;5.00;2.93;;;25.90;48.40;;;26.29;34.36;98689.66;5019912;28;125511;-82
2022/08/31 00:14:19;;;;;;;6.10;3.80;;;25.90;48.50;;;26.31;34.26;98687.22;5019646;28;123372;-83
2022/08/31 00:16:46;;;;;;;5.00;3.50;;;25.90;48.50;;;26.29;34.23;98686.84;5011972;28;114154;-83
2022/08/31 00:19:13;;;;;;;8.80;3.17;;;25.90;48.60;;;26.30;34.35;98699.75;5009001;28;114249;-84
2022/08/31 00:21:40;;;;;;;7.13;3.23;;;25.90;48.70;;;26.27;34.36;98691.31;5011055;28;124015;-83
2022/08/31 00:24:07;;;;;;;5.60;3.03;;;25.80;48.80;;;26.23;34.13;98695.00;5010237;27;123940;-84
2022/08/31 00:26:34;;;;;;;14.03;3.50;;;25.80;48.90;;;26.22;34.75;98686.91;5007972;28;114633;-82
2022/08/31 00:29:01;;;;;;;3.70;3.30;;;25.80;49.00;;;26.17;34.80;98690.22;5014334;28;114126;-82
2022/08/31 00:31:27;;;;;;;3.90;2.60;;;25.70;49.20;;;26.14;34.66;98699.53;5017839;28;124583;-84
2022/08/31 00:33:55;;;;;;;3.73;3.10;;;25.70;49.40;;;26.10;34.56;98702.41;5011310;28;124195;-82
2022/08/31 00:36:26;;;;;;;5.57;3.60;;;25.70;49.50;;;26.08;35.03;98709.72;5019901;28;115453;-81
2022/08/31 00:38:53;;;;;;;3.80;3.07;;;25.60;49.60;;;26.07;34.80;98719.44;5019720;27;114910;-83
2022/08/31 00:41:25;;;;;;;4.43;2.97;;;25.70;49.90;;;26.05;35.34;98728.34;5021090;28;124080;-81
2022/08/31 00:43:58;;;;;;;4.83;3.23;;;25.60;50.60;;;25.99;34.91;98753.47;5024380;27;123787;-82
2022/08/31 00:46:40;;;;;;;9.77;3.40;;;25.60;50.70;;;25.87;35.84;98762.50;5007430;28;113982;-84
2022/08/31 00:49:18;;;;;;;4.13;3.00;;;25.50;50.30;;;25.71;36.81;98753.66;5022342;28;114200;-84
2022/08/31 00:52:06;;;;;;;4.30;3.17;;;25.40;51.40;;;25.52;37.54;98772.81;5008858;28;124303;-83
2022/08/31 00:54:40;;;;;;;5.30;3.30;;;25.20;52.50;;;25.38;38.02;98770.06;5022004;28;124163;-83
2022/08/31 00:57:09;;;;;;;6.00;4.00;;;25.10;53.00;;;25.21;39.12;98783.09;5019950;28;114401;-82
2022/08/31 00:59:37;;;;;;;6.97;3.90;;;25.00;54.30;;;25.03;40.18;98797.28;5011818;28;113337;-84
2022/08/31 01:02:04;;;;;;;4.30;3.10;;;24.80;55.40;;;24.89;41.39;98784.00;5014930;28;122659;-84
2022/08/31 01:04:31;;;;;;;8.20;3.50;;;24.70;56.60;;;24.81;42.14;98796.53;5021766;28;123861;-82
2022/08/31 01:06:58;;;;;;;7.47;4.63;;;24.60;57.90;;;24.71;43.73;98779.63;5016850;28;114479;-83
2022/08/31 01:09:29;;;;;;;14.87;5.60;;;24.40;59.80;;;24.51;45.00;98771.59;5015368;28;114050;-83
2022/08/31 01:11:55;;;;;;;9.03;4.63;;;24.30;61.50;;;24.31;45.88;98770.41;5013689;28;124398;-82
2022/08/31 01:14:22;;;;;;;6.27;4.40;;;24.10;63.00;;;24.14;47.08;98778.47;5021578;28;124020;-82
2022/08/31 01:16:56;;;;;;;9.03;4.60;;;23.90;64.50;;;23.99;48.13;98776.88;5021632;28;113979;-83
2022/08/31 01:19:28;;;;;;;5.73;4.20;;;23.80;66.30;;;23.85;48.91;98776.88;5007487;28;114025;-83
2022/08/31 01:22:17;;;;;;;9.37;4.93;;;23.70;67.50;;;23.70;49.77;98787.34;5017629;28;124221;-81
2022/08/31 01:24:46;;;;;;;7.97;4.47;;;23.50;69.20;;;23.44;50.53;98797.75;5019133;28;123890;-82
2022/08/31 01:27:17;;;;;;;7.70;4.17;;;23.30;70.10;;;23.33;51.21;98792.06;5014634;28;114403;-83
2022/08/31 01:29:44;;;;;;;7.13;3.90;;;23.20;72.00;;;23.30;51.58;98804.16;5018748;28;116029;-83
2022/08/31 01:32:10;;;;;;;8.23;4.50;;;23.10;73.50;;;23.29;51.66;98808.19;5014037;27;124419;-83
2022/08/31 01:34:37;;;;;;;9.00;4.60;;;23.10;74.70;;;23.25;51.75;98803.75;5014384;28;124184;-82
2022/08/31 01:37:04;;;;;;;8.87;4.73;;;23.00;75.70;;;23.23;52.53;98800.50;5017789;28;114432;-83
2022/08/31 01:39:30;;;;;;;7.20;5.23;;;22.90;76.70;;;23.22;52.39;98805.34;5010660;28;113533;-81
2022/08/31 01:41:57;;;;;;;7.30;4.90;;;22.90;78.60;;;23.16;52.63;98804.13;5010629;28;124296;-82
2022/08/31 01:44:26;;;;;;;9.70;5.20;;;22.80;78.70;;;23.07;52.61;98795.22;5011288;28;124993;-83
2022/08/31 01:46:54;;;;;;;7.23;4.30;;;22.80;79.80;;;22.94;52.93;98797.53;5021441;28;115423;-82
2022/08/31 01:49:22;;;;;;;8.20;4.77;;;22.70;80.30;;;22.87;53.59;98787.03;5029276;27;113927;-80
2022/08/31 01:51:50;;;;;;;9.90;4.57;;;22.60;81.40;;;22.84;53.44;98782.22;5016225;28;124820;-81
2022/08/31 01:54:17;;;;;;;7.47;4.90;;;22.60;82.20;;;22.80;53.67;98784.19;5011683;28;124163;-83
2022/08/31 01:56:46;;;;;;;6.30;4.73;;;22.50;82.60;;;22.74;53.99;98794.22;5012447;28;114304;-81
2022/08/31 01:59:17;;;;;;;6.83;5.17;;;22.50;83.30;;;22.69;54.63;98791.78;5013046;28;114253;-81
2022/08/31 02:01:47;;;;;;;9.27;4.90;;;22.40;84.10;;;22.66;54.67;98801.03;5001077;28;123602;-82
2022/08/31 02:04:15;;;;;;;7.40;4.50;;;22.40;84.90;;;22.61;54.74;98802.19;5024797;27;122927;-78
2022/08/31 02:06:45;;;;;;;6.17;4.43;;;22.30;85.50;;;22.55;54.98;98797.34;5014292;28;114563;-82
2022/08/31 02:09:13;;;;;;;7.50;4.90;;;22.30;86.00;;;22.50;55.28;98790.88;5011376;28;113930;-83
2022/08/31 02:11:40;;;;;;;8.10;4.43;;;22.20;86.60;;;22.49;55.33;98794.09;5022442;28;124159;-79
2022/08/31 02:14:07;;;;;;;10.70;4.93;;;22.20;87.20;;;22.42;55.43;98789.22;5023990;28;123789;-79
2022/08/31 02:16:35;;;;;;;16.83;5.07;;;22.10;87.60;;;22.35;55.80;98789.16;5018263;28;114417;-81
2022/08/31 02:19:04;;;;;;;10.70;5.30;;;22.10;88.30;;;22.24;56.07;98789.06;5011717;28;114956;-84
2022/08/31 02:21:31;;;;;;;6.60;4.80;;;22.00;88.70;;;22.15;56.16;98785.78;5018908;28;122193;-82
2022/08/31 02:23:57;;;;;;;9.97;5.40;;;21.90;89.20;;;22.07;56.38;98786.91;5018825;27;123980;-81
2022/08/31 02:26:24;;;;;;;6.43;4.63;;;21.80;89.40;;;22.01;57.05;98786.47;5019069;27;114545;-82
2022/08/31 02:28:51;;;;;;;8.40;4.70;;;21.80;90.00;;;21.99;57.07;98783.25;5015950;28;114531;-80
2022/08/31 02:31:17;;;;;;;5.47;4.63;;;21.70;90.20;;;22.01;56.94;98791.31;5009872;28;124120;-83
2022/08/31 02:33:44;;;;;;;8.90;4.50;;;21.70;90.40;;;22.06;57.29;98797.38;5017103;28;123754;-79
2022/08/31 02:36:11;;;;;;;6.30;5.30;;;21.70;90.50;;;22.11;57.66;98796.22;5028909;27;115281;-79
2022/08/31 02:38:39;;;;;;;7.23;4.50;;;21.70;91.00;;;22.14;57.73;98795.44;5012625;27;113978;-83
2022/08/31 02:41:06;;;;;;;9.10;4.80;;;21.70;91.20;;;22.20;57.72;98804.34;5009223;28;124127;-81
2022/08/31 02:43:32;;;;;;;12.20;4.93;;;21.70;91.80;;;22.25;58.14;98806.81;5012463;28;123968;-82
2022/08/31 02:45:59;;;;;;;6.57;5.07;;;21.80;91.70;;;22.30;57.98;98800.81;5009878;28;114293;-83
2022/08/31 02:48:25;;;;;;;7.83;4.80;;;21.80;91.80;;;22.35;57.69;98799.59;5017129;28;113944;-81
2022/08/31 02:50:53;;;;;;;6.30;4.63;;;21.90;91.80;;;22.33;57.26;98811.28;5012079;28;124071;-83
2022/08/31 02:53:22;;;;;;;5.87;4.93;;;21.90;91.60;;;22.30;56.89;98809.25;5017396;28;123973;-81
2022/08/31 02:55:49;;;;;;;7.43;4.40;;;21.90;91.40;;;22.28;56.95;98806.00;5008791;28;114380;-80
2022/08/31 02:58:16;;;;;;;7.17;5.20;;;21.80;91.60;;;22.25;57.07;98806.81;5024309;28;113028;-82
2022/08/31 03:00:46;;;;;;;5.07;3.87;;;21.80;91.80;;;22.21;57.43;98811.56;5032212;27;123671;-81
2022/08/31 03:03:14;;;;;;;7.10;4.30;;;21.80;91.60;;;22.16;57.42;98807.09;5024435;28;123948;-80
2022/08/31 03:05:41;;;;;;;5.40;4.10;;;21.80;91.70;;;22.12;57.73;98805.47;5019135;28;115472;-82
2022/08/31 03:08:08;;;;;;;6.20;4.80;;;21.70;91.70;;;22.11;57.77;98809.44;5020049;28;114871;-83
2022/08/31 03:10:34;;;;;;;7.37;4.80;;;21.70;91.90;;;22.09;58.25;98795.00;4998341;28;123480;-83
2022/08/31 03:13:01;;;;;;;10.13;4.93;;;21.70;92.10;;;22.07;58.04;98801.00;5009832;28;124307;-84
2022/08/31 03:15:28;;;;;;;6.97;4.30;;;21.70;92.20;;;22.05;58.20;98809.00;5017318;28;114531;-82
2022/08/31 03:17:55;;;;;;;7.63;4.60;;;21.70;92.40;;;22.03;58.71;98814.22;5012731;28;114895;-83
2022/08/31 03:20:25;;;;;;;6.43;3.90;;;21.60;92.50;;;22.03;58.84;98815.03;5022982;28;124519;-80
2022/08/31 03:22:53;;;;;;;8.17;4.97;;;21.60;92.70;;;22.06;58.81;98816.28;5013526;28;122922;-84
2022/08/31 03:25:19;;;;;;;7.40;4.70;;;21.60;92.80;;;22.11;58.84;98815.09;5033449;28;114144;-82
2022/08/31 03:27:46;;;;;;;7.17;4.70;;;21.70;93.00;;;22.12;58.64;98816.72;5019606;27;113946;-82
2022/08/31 03:30:17;;;;;;;4.47;3.90;;;21.70;92.90;;;22.12;58.68;98813.91;5009511;28;125046;-82
2022/08/31 03:32:44;;;;;;;5.43;4.00;;;21.70;92.90;;;22.11;58.47;98807.47;5022858;28;123466;-82
2022/08/31 03:35:11;;;;;;;4.93;4.43;;;21.70;92.90;;;22.11;58.40;98795.38;5010617;28;113769;-83
2022/08/31 03:37:38;;;;;;;6.17;4.83;;;21.60;92.80;;;22.09;58.50;98792.16;5009257;28;113928;-81
2022/08/31 03:40:06;;;;;;;6.40;4.60;;;21.70;92.90;;;22.08;58.40;98784.91;5011221;27;123914;-84
2022/08/31 03:42:32;;;;;;;6.87;4.57;;;21.60;92.90;;;22.07;58.55;98781.28;5023538;28;123921;-81
2022/08/31 03:44:59;;;;;;;5.13;4.30;;;21.60;93.00;;;22.09;58.63;98792.16;5019591;28;113537;-79
2022/08/31 03:47:25;;;;;;;6.87;4.60;;;21.60;93.10;;;22.10;58.73;98796.59;5009159;28;114524;-82
2022/08/31 03:49:52;;;;;;;6.73;4.80;;;21.60;93.20;;;22.12;58.67;98797.81;5008776;28;122961;-84
2022/08/31 03:52:20;;;;;;;6.00;4.17;;;21.60;93.30;;;22.14;58.68;98795.44;5011098;28;123698;-81
2022/08/31 03:54:47;;;;;;;6.90;4.50;;;21.60;93.30;;;22.14;59.00;98794.59;5010117;28;115395;-81
2022/08/31 03:57:13;;;;;;;6.50;4.80;;;21.70;93.40;;;22.14;58.86;98789.81;5022937;27;113203;-82
2022/08/31 03:59:40;;;;;;;5.60;4.27;;;21.70;93.40;;;22.15;58.76;98791.41;5015247;28;123531;-83
2022/08/31 04:02:06;;;;;;;4.60;3.90;;;21.70;93.40;;;22.16;58.82;98795.81;5010186;28;123017;-83
2022/08/31 04:04:33;;;;;;;9.43;4.67;;;21.70;93.40;;;22.17;58.56;98810.72;5014128;28;114389;-82
2022/08/31 04:07:00;;;;;;;7.07;4.77;;;21.70;93.40;;;22.16;58.37;98825.97;5040313;27;113114;-81
2022/08/31 04:09:27;;;;;;;9.20;4.93;;;21.70;93.30;;;22.14;58.32;98828.38;5013474;28;124322;-82
2022/08/31 04:11:53;;;;;;;7.57;4.97;;;21.70;93.20;;;22.09;58.22;98825.94;5008771;28;123816;-83
2022/08/31 04:14:20;;;;;;;10.10;4.67;;;21.70;93.20;;;22.04;58.70;98833.53;5012556;28;114287;-83
2022/08/31 04:16:46;;;;;;;7.27;5.00;;;21.60;93.20;;;21.99;58.62;98833.06;5021195;28;113954;-80
2022/08/31 04:19:14;;;;;;;8.17;5.17;;;21.60;93.30;;;21.96;59.12;98840.28;5012244;28;124445;-83
2022/08/31 04:21:43;;;;;;;5.90;4.60;;;21.60;93.50;;;21.91;59.25;98843.44;5019200;28;122988;-82
2022/08/31 04:24:10;;;;;;;8.63;4.43;;;21.50;93.50;;;21.89;59.20;98833.78;5027092;27;114088;-83
2022/08/31 04:26:39;;;;;;;5.43;4.67;;;21.50;93.60;;;21.87;59.42;98837.00;5028938;28;113116;-83
2022/08/31 04:29:06;;;;;;;7.53;5.53;;;21.40;93.70;;;21.87;59.35;98837.00;5012585;28;123389;-81
2022/08/31 04:31:35;;;;;;;6.70;4.93;;;21.40;93.80;;;21.87;59.67;98837.00;5018288;28;123552;-81
2022/08/31 04:34:04;;;;;;;6.73;5.00;;;21.40;93.90;;;21.87;59.50;98825.75;5006639;28;113319;-82
2022/08/31 04:36:30;;;;;;;6.20;5.00;;;21.40;94.00;;;21.87;59.63;98834.19;5008543;28;113952;-81
2022/08/31 04:39:00;;;;;;;8.17;4.93;;;21.40;94.10;;;21.87;59.94;98831.38;5025892;27;124129;-85
2022/08/31 04:41:31;;;;;;;5.97;4.40;;;21.40;94.50;;;21.85;59.62;98828.13;5014619;28;124281;-84
2022/08/31 04:43:59;;;;;;;6.00;4.90;;;21.40;94.20;;;21.83;59.45;98836.16;5017796;28;116136;-84
2022/08/31 04:46:28;;;;;;;6.60;5.40;;;21.40;94.20;;;21.80;59.49;98840.53;5022177;28;115656;-81
2022/08/31 04:48:55;;;;;;;8.20;4.50;;;21.40;94.20;;;21.75;59.80;98849.31;5031649;27;123256;-80
2022/08/31 04:51:27;;;;;;;6.33;4.90;;;21.30;94.10;;;21.68;59.62;98851.25;5006100;28;124784;-80
2022/08/31 04:53:57;;;;;;;8.50;4.80;;;21.30;94.10;;;21.60;59.77;98845.56;5016366;28;115383;-84
2022/08/31 04:56:30;;;;;;;6.80;4.33;;;21.20;94.00;;;21.55;59.67;98851.53;5012663;28;114027;-83
2022/08/31 04:59:03;;;;;;;7.00;5.10;;;21.20;94.10;;;21.55;59.85;98854.34;5010828;28;123512;-79
2022/08/31 05:01:34;;;;;;;7.47;5.10;;;21.10;94.20;;;21.55;59.92;98848.72;5009102;28;123555;-80
2022/08/31 05:04:02;;;;;;;8.40;4.77;;;21.10;94.20;;;21.53;59.99;98845.47;5040438;27;113407;-82
2022/08/31 05:06:31;;;;;;;9.07;4.80;;;21.10;94.20;;;21.46;59.65;98848.22;5022076;28;114656;-83
2022/08/31 05:09:06;;;;;;;5.17;4.67;;;21.10;94.10;;;21.42;59.67;98857.81;5028481;27;123524;-81
2022/08/31 05:11:33;;;;;;;6.10;4.67;;;21.10;94.10;;;21.39;59.92;98856.56;5007356;28;123979;-82
2022/08/31 05:14:03;;;;;;;7.33;4.87;;;21.00;94.20;;;21.39;60.31;98856.56;5006520;28;113541;-84
2022/08/31 05:16:30;;;;;;;6.30;4.80;;;21.00;94.30;;;21.42;60.21;98855.81;5013722;28;113677;-84
2022/08/31 05:18:58;;;;;;;8.03;5.10;;;21.00;94.30;;;21.47;59.96;98861.09;5012103;28;124138;-81
2022/08/31 05:21:31;;;;;;;7.70;4.93;;;21.10;94.50;;;21.55;60.22;98859.16;5018370;28;123627;-84
2022/08/31 05:24:02;;;;;;;7.53;5.10;;;21.10;94.60;;;21.57;60.17;98857.59;5014849;27;114362;-83
2022/08/31 05:26:33;;;;;;;6.37;4.90;;;21.10;94.60;;;21.64;60.31;98867.28;5014108;28;113928;-80
2022/08/31 05:29:02;;;;;;;8.17;4.80;;;21.10;94.60;;;21.67;60.28;98866.53;5012774;28;125007;-83
2022/08/31 05:31:29;;;;;;;6.37;5.10;;;21.10;94.60;;;21.70;59.79;98865.75;5022875;28;123598;-82
2022/08/31 05:33:57;;;;;;;6.83;4.53;;;21.20;94.60;;;21.71;59.67;98873.81;5010933;28;114548;-81
2022/08/31 05:36:25;;;;;;;7.70;4.80;;;21.20;94.60;;;21.75;59.78;98868.22;5010375;28;114645;-84
2022/08/31 05:38:52;;;;;;;5.73;4.40;;;21.20;94.60;;;21.79;59.95;98867.06;5021278;28;124099;-83
2022/08/31 05:41:20;;;;;;;6.50;4.93;;;21.30;94.70;;;21.82;59.85;98880.34;5015164;28;124321;-81
2022/08/31 05:43:47;;;;;;;6.50;4.23;;;21.30;94.70;;;21.86;59.77;98883.19;5015090;28;114183;-80
2022/08/31 05:46:15;;;;;;;6.00;4.90;;;21.30;94.70;;;21.89;59.85;98882.41;5008369;28;114469;-84
2022/08/31 05:48:42;;;;;;;6.80;4.40;;;21.30;94.80;;;21.93;60.05;98886.09;5009104;28;123911;-84
2022/08/31 05:51:13;;;;;;;8.67;5.00;;;21.40;94.80;;;21.96;59.55;98885.31;5024892;27;123822;-85
2022/08/31 05:53:40;;;;;;;7.30;4.90;;;21.40;94.80;;;22.01;59.26;98893.41;5013897;27;114094;-81
2022/08/31 05:56:15;;;;;;;5.67;4.03;;;21.40;94.70;;;22.02;59.25;98895.00;5012942;28;114065;-83
2022/08/31 05:58:43;;;;;;;7.13;4.50;;;21.60;94.70;;;22.02;59.25;98894.19;5013837;28;124127;-82
2022/08/31 06:01:25;;;;;;;6.50;4.83;;;21.40;94.50;;;22.04;58.90;98892.63;5021583;27;123820;-83
2022/08/31 06:03:55;;;;;;;5.43;4.60;;;21.50;94.50;;;22.09;59.15;98902.72;4977818;28;114557;-81
2022/08/31 06:06:23;;;;;;;7.40;5.17;;;21.50;94.60;;;22.12;59.17;98899.13;5029913;28;113872;-84
2022/08/31 06:08:51;;;;;;;6.40;4.80;;;21.50;94.60;;;22.15;59.27;98892.72;5021868;27;125327;-82
2022/08/31 06:11:20;;;;;;;6.80;4.80;;;21.60;94.60;;;22.18;59.32;98896.75;5023961;28;124196;-83
2022/08/31 06:13:51;;;;;;;6.00;4.10;;;21.60;94.60;;;22.20;58.96;98891.59;5027035;27;114292;-83
2022/08/31 06:16:19;;;;;;;6.60;4.93;;;21.60;94.60;;;22.20;59.00;98888.78;5036965;27;113257;-83
2022/08/31 06:18:52;;;;;;;8.67;4.73;;;21.70;94.50;;;22.20;59.38;98900.03;5026819;28;124664;-80
2022/08/31 06:21:24;;;;;;;6.10;4.77;;;21.70;94.60;;;22.18;59.05;98896.75;5020961;28;123844;-81
2022/08/31 06:23:53;;;;;;;7.57;4.93;;;21.70;94.60;;;22.17;59.60;98906.41;5024938;28;115131;-82
2022/08/31 06:26:22;;;;;;;6.63;4.50;;;21.70;94.60;;;22.16;59.28;98905.59;5028392;28;115364;-83
2022/08/31 06:28:53;;;;;;;7.30;5.17;;;21.70;94.60;;;22.15;59.64;98908.81;5024881;27;124506;-84
2022/08/31 06:31:47;;;;;;;6.83;5.00;;;21.70;94.60;;;22.13;59.37;98908.38;5022664;28;124354;-83
2022/08/31 06:34:17;;;;;;;5.40;4.10;;;21.70;94.50;;;22.07;58.72;98913.53;5024853;28;114365;-82
2022/08/31 06:36:48;;;;;;;6.23;4.83;;;21.60;94.30;;;22.04;59.29;98912.31;5027908;28;113210;-84
2022/08/31 06:39:15;;;;;;;7.57;4.87;;;21.60;94.30;;;22.03;59.16;98907.06;5029561;28;125101;-83
2022/08/31 06:41:42;;;;;;;5.60;4.63;;;21.60;94.40;;;22.02;59.73;98911.88;5022141;28;123865;-85
2022/08/31 06:44:11;;;;;;;6.30;5.40;;;21.60;94.60;;;22.00;59.86;98908.66;5021141;28;114338;-86
2022/08/31 06:46:40;;;;;;;6.63;5.20;;;21.50;94.70;;;22.00;59.57;98914.31;5009513;28;113976;-81
2022/08/31 06:49:07;;;;;;;5.20;4.47;;;20.20;94.20;;;21.98;59.54;98919.50;5010934;28;124141;-83
2022/08/31 06:51:35;;;;;;;6.43;4.83;;;21.50;94.70;;;21.95;59.44;98911.84;5029969;27;125177;-83
2022/08/31 06:54:06;;;;;;;5.97;4.57;;;21.50;94.70;;;21.90;60.08;98915.00;5020008;27;114615;-82
2022/08/31 06:56:34;;;;;;;5.33;4.83;;;21.50;94.80;;;21.88;59.78;98917.38;5023501;28;114051;-84
2022/08/31 06:59:02;;;;;;;5.03;4.50;;;21.40;94.80;;;21.84;60.27;98911.72;5013220;28;124380;-82
2022/08/31 07:01:31;;;;;;;6.10;4.60;;;21.40;94.80;;;21.79;60.06;98914.06;5021390;28;122830;-84
2022/08/31 07:04:00;;;;;;;6.53;4.90;;;21.40;94.80;;;21.73;59.78;98916.41;5014307;28;114361;-83
2022/08/31 07:06:38;;;;;;;8.43;4.63;;;21.30;94.70;;;21.66;60.38;98926.78;5017883;28;97174;-84
2022/08/31 07:09:08;;;;;;;6.50;4.87;;;21.20;94.70;;;21.62;60.24;98921.09;5012576;28;124365;-82
2022/08/31 07:11:51;;;;;;;7.63;4.60;;;21.20;94.80;;;21.56;60.47;98923.44;5027467;28;123929;-82
2022/08/31 07:14:23;;;;;;;5.73;4.63;;;21.20;94.90;;;21.54;60.72;98923.00;5016559;27;115241;-83
2022/08/31 07:16:52;;;;;;;5.60;4.20;;;21.10;95.00;;;21.51;60.46;98925.78;5022684;28;115095;-84
2022/08/31 07:19:20;;;;;;;4.77;4.27;;;21.10;95.00;;;21.46;61.00;98931.75;5032299;27;125294;-87
2022/08/31 07:21:51;;;;;;;9.70;4.97;;;21.10;95.10;;;21.37;61.11;98937.63;5028918;28;122825;-83
2022/08/31 07:24:23;;;;;;;7.27;4.30;;;21.00;95.10;;;21.34;61.29;98932.78;5022880;27;114302;-85
2022/08/31 07:26:53;;;;;;;5.70;4.73;;;21.00;95.30;;;21.34;61.20;98938.41;5018157;28;113855;-81
2022/08/31 07:29:22;;;;;;;6.40;4.90;;;21.00;95.40;;;21.36;61.55;98941.63;5026709;27;124152;-84
2022/08/31 07:31:49;;;;;;;10.53;5.10;;;21.00;95.50;;;21.37;61.20;98932.00;5014404;28;124900;-83
2022/08/31 07:34:18;;;;;;;8.27;5.47;;;21.00;95.50;;;21.37;61.13;98937.63;5027647;28;114525;-84
2022/08/31 07:42:42;;;;;;;6.20;4.47;;;21.00;95.50;;;21.36;60.81;98936.03;5019279;28;125206;-83
2022/08/31 07:45:20;;;;;;;7.50;4.60;;;21.00;95.40;;;21.41;60.83;98938.50;5030741;28;114476;-84
2022/08/31 07:47:49;;;;;;;9.50;4.57;;;21.00;95.40;;;21.49;60.93;98934.59;5026071;28;114662;-82
2022/08/31 07:50:17;;;;;;;6.23;4.97;;;21.00;95.40;;;21.58;60.76;98932.31;5016992;28;124804;-82
2022/08/31 07:52:51;;;;;;;8.47;4.83;;;21.10;95.50;;;21.68;60.28;98936.44;5018465;27;126559;-84
2022/08/31 07:55:21;;;;;;;6.57;4.50;;;21.10;95.50;;;21.76;60.31;98943.78;5022298;27;113606;-83
2022/08/31 07:57:49;;;;;;;7.00;5.20;;;21.20;95.50;;;21.81;60.24;98934.16;5014058;28;111941;-82
2022/08/31 08:00:28;;;;;;;6.10;5.00;;;21.20;95.40;;;21.84;59.68;98941.81;5014296;28;124059;-82
2022/08/31 08:02:55;;;;;;;5.97;4.37;;;21.20;95.10;;;21.83;59.13;98937.41;5024085;28;123250;-78
2022/08/31 08:05:26;;;;;;;6.93;4.67;;;21.00;94.80;;;21.80;59.06;98939.00;5014461;27;115612;-82
2022/08/31 08:07:57;;;;;;;5.97;5.37;;;21.30;94.80;;;21.76;59.48;98940.13;5016312;28;115043;-84
2022/08/31 08:10:26;;;;;;;8.20;5.57;;;21.30;94.80;;;21.72;59.75;98945.72;5018218;28;124192;-84
2022/08/31 08:12:59;;;;;;;10.10;5.80;;;21.20;94.80;;;21.68;59.60;98932.81;5017432;27;123893;-85
2022/08/31 08:15:26;;;;;;;9.37;4.87;;;21.20;94.80;;;21.67;59.59;98950.88;5012406;28;114105;-84
2022/08/31 08:17:52;;;;;;;10.93;4.90;;;21.20;94.80;;;21.65;59.64;98942.00;5014048;28;113300;-85
2022/08/31 08:20:19;;;;;;;7.10;4.70;;;21.20;94.80;;;21.64;59.92;98946.03;5019385;28;123573;-82
2022/08/31 08:22:47;;;;;;;6.97;5.00;;;21.20;94.90;;;21.67;60.33;98950.88;5004454;28;122083;-83
2022/08/31 08:25:13;;;;;;;8.03;5.03;;;21.20;95.00;;;21.68;60.38;98958.13;5021067;27;114263;-84
2022/08/31 08:27:41;;;;;;;9.47;4.70;;;21.20;95.10;;;21.67;60.28;98956.50;5015627;27;114021;-84
2022/08/31 08:30:12;;;;;;;7.03;4.93;;;21.20;95.20;;;21.64;60.93;98954.47;5020792;28;123119;-82
2022/08/31 08:32:41;;;;;;;5.93;4.57;;;21.20;95.30;;;21.61;60.82;98967.28;5026816;28;124025;-82
2022/08/31 08:35:10;;;;;;;9.30;5.57;;;21.20;95.40;;;21.57;60.93;98964.44;5020176;28;113648;-83
2022/08/31 08:37:41;;;;;;;7.47;4.97;;;21.10;95.50;;;21.56;61.47;98968.44;5024613;28;113721;-81
2022/08/31 08:40:21;;;;;;;5.77;4.97;;;21.10;95.60;;;21.59;61.28;98966.84;5017223;27;124824;-81
2022/08/31 08:42:47;;;;;;;6.50;4.70;;;21.10;95.70;;;21.65;61.54;98958.88;5020118;27;124116;-84
2022/08/31 08:45:14;;;;;;;6.70;5.17;;;21.20;95.80;;;21.75;61.23;98969.47;5008662;28;114007;-83
2022/08/31 08:47:40;;;;;;;7.10;5.70;;;21.20;95.90;;;21.82;61.26;98958.31;5023707;28;114045;-83
2022/08/31 08:50:07;;;;;;;8.07;5.90;;;21.20;96.00;;;21.86;60.95;98970.38;5018215;28;124241;-83
2022/08/31 08:52:43;;;;;;;7.67;5.67;;;21.30;96.10;;;21.88;61.18;98976.44;5041526;27;125412;-84
2022/08/31 08:55:23;;;;;;;7.90;4.87;;;21.30;96.00;;;21.94;60.81;98982.53;5010697;27;114948;-85
2022/08/31 08:57:50;;;;;;;8.03;5.20;;;21.40;96.10;;;21.97;61.01;98982.56;5025767;28;115368;-85
2022/08/31 09:00:24;;;;;;;8.77;4.97;;;21.40;96.00;;;22.00;60.86;98983.81;5025118;28;123287;-80
2022/08/31 09:02:54;;;;;;;10.03;5.70;;;21.40;95.80;;;22.01;60.49;98989.06;5012521;27;123732;-82
2022/08/31 09:06:00;;;;;;;6.70;5.33;;;21.50;95.80;;;22.00;60.46;98986.63;5021857;28;114126;-81
2022/08/31 09:08:53;;;;;;;8.27;5.40;;;21.50;95.60;;;21.99;60.41;98980.19;5035819;28;114506;-84
2022/08/31 09:11:33;;;;;;;7.10;5.67;;;21.50;95.60;;;22.05;60.14;98989.09;5033996;28;124285;-85
2022/08/31 09:14:25;;;;;;;10.03;5.50;;;21.50;95.60;;;22.09;60.17;98989.16;5035339;28;122761;-79
2022/08/31 09:17:32;;;;;;;6.57;5.60;;;21.60;95.50;;;22.15;59.92;98993.22;5023150;28;114898;-82
2022/08/31 09:20:00;;;;;;;7.33;5.20;;;21.60;95.40;;;22.19;59.68;98994.09;5032765;28;114744;-83
2022/08/31 09:22:31;;;;;;;8.70;4.60;;;21.60;95.20;;;22.22;59.25;98987.72;5050382;27;123508;-84
2022/08/31 09:24:59;;;;;;;9.43;4.57;;;21.60;95.00;;;22.28;59.11;98988.97;5047132;27;122676;-81
2022/08/31 09:27:47;;;;;;;5.93;4.60;;;21.60;94.80;;;22.33;58.60;98991.44;5023208;28;115616;-80
2022/08/31 09:30:38;;;;;;;12.10;4.80;;;21.70;94.80;;;22.41;58.32;98995.94;5018243;28;114132;-85
2022/08/31 09:33:06;;;;;;;6.47;4.63;;;21.80;94.60;;;22.44;57.89;98989.53;5029604;27;123794;-84
2022/08/31 09:35:40;;;;;;;8.80;5.10;;;21.80;94.40;;;22.44;57.34;98995.16;5022140;28;123825;-82
2022/08/31 09:38:15;;;;;;;6.20;5.07;;;21.80;94.00;;;22.42;57.31;98991.94;5022417;28;114406;-80
2022/08/31 09:40:48;;;;;;;7.07;4.80;;;21.80;93.80;;;22.45;57.11;98985.50;4992933;28;113955;-83
2022/08/31 09:43:23;;;;;;;5.80;4.40;;;21.90;93.80;;;22.47;56.67;98987.97;5020467;28;123512;-80
2022/08/31 09:46:11;;;;;;;4.80;4.10;;;21.90;93.50;;;22.45;56.73;98995.97;5017237;27;124032;-77
2022/08/31 09:48:50;;;;;;;6.60;4.90;;;21.90;93.40;;;22.46;56.79;98998.41;5014262;27;114359;-83
2022/08/31 09:51:27;;;;;;;9.07;5.00;;;21.90;93.30;;;22.44;56.31;99000.81;5017782;28;114348;-77
2022/08/31 09:57:09;;;;;;;8.00;5.13;;;21.90;92.80;;;22.36;55.42;99007.56;5024035;28;124424;-80
2022/08/31 09:59:44;;;;;;;7.90;4.13;;;21.90;92.40;;;22.32;55.59;99001.06;5028576;28;114077;-81
2022/08/31 10:02:23;;;;;;;6.43;4.97;;;21.90;92.30;;;22.30;55.29;98995.03;5014705;28;114752;-85
2022/08/31 10:04:56;;;;;;;8.40;4.87;;;21.80;92.10;;;22.27;54.46;98998.59;5026883;27;124700;-83
2022/08/31 10:07:43;;;;;;;6.63;4.80;;;21.80;91.90;;;22.24;54.35;98993.75;5028826;28;123865;-83
2022/08/31 10:10:14;;;;;;;7.10;5.03;;;21.80;91.70;;;22.22;54.45;98994.16;5009858;28;113839;-83
2022/08/31 10:12:49;;;;;;;6.03;4.13;;;21.80;91.70;;;22.20;54.40;98992.91;5035248;27;112810;-84
2022/08/31 10:15:25;;;;;;;7.30;4.37;;;21.70;91.50;;;22.19;54.22;99005.34;5027761;28;124100;-89
2022/08/31 10:18:10;;;;;;;5.07;4.30;;;21.70;91.40;;;22.18;53.97;99003.72;5018501;28;122938;-84
2022/08/31 10:20:47;;;;;;;6.53;4.20;;;21.70;91.20;;;22.20;54.34;98995.72;5022917;28;114808;-85
2022/08/31 10:23:21;;;;;;;5.70;4.13;;;21.70;91.20;;;22.22;53.77;98998.97;5019634;28;113997;-85
2022/08/31 10:25:57;;;;;;;6.20;4.20;;;21.70;91.20;;;22.22;53.64;98996.16;5013871;28;124039;-86
2022/08/31 10:28:43;;;;;;;7.80;4.70;;;21.70;91.00;;;22.21;53.66;98997.34;5022629;28;123964;-87
2022/08/31 10:31:44;;;;;;;7.00;4.50;;;21.80;90.90;;;22.21;53.67;99000.16;5015004;27;113392;-87
2022/08/31 10:37:35;;;;;;;11.27;5.80;;;21.80;90.90;;;22.24;53.30;99003.00;5027752;28;124955;-83
2022/08/31 10:40:22;;;;;;;6.27;4.73;;;21.80;90.80;;;22.23;53.20;98995.75;5016303;27;123919;-83
2022/08/31 10:43:22;;;;;;;8.50;4.90;;;21.80;90.70;;;22.22;53.50;98998.97;5017886;28;114874;-83